Time;durP1;ratioP1;P1;durP2;ratioP2;P2;SDS_P1;SDS_P2;PMS_P1;PMS_P2;Temp;Humidity;BMP_temperature;BMP_pressure;BME280_temperature;BME280_humidity;BME280_pressure;Samples;Min_cycle;Max_cycle;Signal;HPM_P1;HPM_P2
2021/09/03 00:00:21;;;;;;;20.77;9.70;;;14.80;97.40;;;;;;5043190;28;20404;-83
2021/09/03 00:02:47;;;;;;;24.30;9.63;;;14.80;97.40;;;;;;5042947;28;20463;-84
2021/09/03 00:05:15;;;;;;;18.23;8.77;;;14.80;97.30;;;;;;5043955;28;20196;-83
2021/09/03 00:07:41;;;;;;;22.50;10.50;;;14.70;97.30;;;;;;5046502;28;20622;-83
2021/09/03 00:10:09;;;;;;;20.75;8.63;;;14.70;97.00;;;;;;5046749;28;20175;-84
2021/09/03 00:12:35;;;;;;;18.38;10.00;;;14.70;96.80;;;;;;5047082;28;20184;-83
2021/09/03 00:15:01;;;;;;;18.35;8.98;;;14.70;96.70;;;;;;5045680;28;20196;-83
2021/09/03 00:17:27;;;;;;;16.25;9.02;;;14.60;96.80;;;;;;5048322;28;20165;-84
2021/09/03 00:19:53;;;;;;;18.57;8.87;;;14.60;97.00;;;;;;5048410;28;20649;-83
2021/09/03 00:22:20;;;;;;;23.87;10.17;;;14.60;97.00;;;;;;5049301;28;20414;-84
2021/09/03 00:24:45;;;;;;;18.20;9.25;;;14.60;96.90;;;;;;5047006;28;20440;-84
2021/09/03 00:27:11;;;;;;;14.70;7.70;;;14.50;97.00;;;;;;5045353;28;20177;-85
2021/09/03 00:29:37;;;;;;;16.23;8.80;;;14.50;97.20;;;;;;5047674;28;20546;-85
2021/09/03 00:32:03;;;;;;;21.33;9.70;;;14.50;97.30;;;;;;5045508;28;20176;-84
2021/09/03 00:34:29;;;;;;;20.48;9.63;;;14.50;97.30;;;;;;5043631;28;20851;-80
2021/09/03 00:36:55;;;;;;;24.13;8.93;;;14.40;97.20;;;;;;5040351;28;20176;-81
2021/09/03 00:39:21;;;;;;;18.58;9.10;;;14.40;97.20;;;;;;5039674;28;20422;-81
2021/09/03 00:41:47;;;;;;;16.00;7.90;;;;;;;;;;5039959;28;20204;-81
2021/09/03 00:44:13;;;;;;;18.83;8.70;;;14.40;97.50;;;;;;5039276;28;20624;-80
2021/09/03 00:46:39;;;;;;;17.83;9.33;;;14.40;97.60;;;;;;5039206;28;20208;-81
2021/09/03 00:49:05;;;;;;;15.23;8.27;;;14.30;97.70;;;;;;5039172;28;20455;-81
2021/09/03 00:51:30;;;;;;;17.07;8.50;;;14.30;97.70;;;;;;5039242;28;20965;-81
2021/09/03 00:53:56;;;;;;;22.23;9.13;;;14.30;97.60;;;;;;5038916;28;21085;-81
2021/09/03 00:56:22;;;;;;;18.30;8.80;;;14.20;97.50;;;;;;5038249;28;20407;-81
2021/09/03 00:58:48;;;;;;;19.00;9.23;;;14.20;97.50;;;;;;5039930;28;20415;-81
2021/09/03 01:01:17;;;;;;;17.13;8.00;;;14.20;97.70;;;;;;5039417;28;20977;-81
2021/09/03 01:03:43;;;;;;;18.45;9.27;;;14.20;97.70;;;;;;5038067;28;20864;-81
2021/09/03 01:06:09;;;;;;;18.77;8.60;;;14.20;97.90;;;;;;5038340;28;20527;-81
2021/09/03 01:08:35;;;;;;;18.60;9.03;;;14.20;98.10;;;;;;5038731;28;20192;-81
2021/09/03 01:11:00;;;;;;;21.13;10.17;;;14.10;98.20;;;;;;5038503;28;20502;-81
2021/09/03 01:13:26;;;;;;;20.23;9.53;;;14.10;98.40;;;;;;5039194;28;20418;-81
2021/09/03 01:15:53;;;;;;;21.85;10.93;;;14.10;98.50;;;;;;5038957;28;20427;-80
2021/09/03 01:18:19;;;;;;;19.20;9.43;;;14.10;98.40;;;;;;5039181;28;20178;-81
2021/09/03 01:20:45;;;;;;;19.23;9.45;;;14.00;98.20;;;;;;5039665;28;20233;-80
2021/09/03 01:23:13;;;;;;;20.15;9.02;;;14.00;98.20;;;;;;5038915;28;20177;-81
2021/09/03 01:25:39;;;;;;;18.70;10.45;;;13.90;98.30;;;;;;5038523;28;20200;-81
2021/09/03 01:28:05;;;;;;;26.42;9.05;;;13.90;98.50;;;;;;5038427;28;20318;-81
2021/09/03 01:30:31;;;;;;;21.23;10.07;;;13.90;98.70;;;;;;5038641;28;20529;-81
2021/09/03 01:32:57;;;;;;;22.73;9.88;;;13.90;98.90;;;;;;5039486;28;20192;-81
2021/09/03 01:35:23;;;;;;;22.33;10.37;;;13.90;99.00;;;;;;5057022;28;20177;-81
2021/09/03 01:37:49;;;;;;;22.90;9.45;;;13.80;99.00;;;;;;5038463;28;21003;-81
2021/09/03 01:40:15;;;;;;;21.47;9.87;;;13.80;99.10;;;;;;5037845;28;20208;-81
2021/09/03 01:42:41;;;;;;;17.30;8.33;;;13.80;99.10;;;;;;5037805;28;20419;-81
2021/09/03 01:45:07;;;;;;;13.70;8.10;;;13.80;99.10;;;;;;5037004;28;20439;-80
2021/09/03 01:47:33;;;;;;;24.77;10.93;;;13.70;99.10;;;;;;5037757;28;20924;-81
2021/09/03 01:49:59;;;;;;;16.93;8.40;;;13.70;99.10;;;;;;5037253;28;20204;-81
2021/09/03 01:52:26;;;;;;;21.70;9.48;;;13.60;99.10;;;;;;5037760;28;20527;-81
2021/09/03 01:54:51;;;;;;;21.02;9.18;;;13.60;99.10;;;;;;5037962;28;20211;-80
2021/09/03 01:57:17;;;;;;;19.90;9.10;;;13.60;99.10;;;;;;5037801;28;20173;-80
2021/09/03 01:59:43;;;;;;;22.10;10.80;;;13.60;99.10;;;;;;5039363;28;20212;-80
2021/09/03 02:02:09;;;;;;;23.37;10.40;;;13.60;99.10;;;;;;5038598;28;20412;-81
2021/09/03 02:04:34;;;;;;;22.10;9.93;;;13.60;99.10;;;;;;5039030;28;20542;-80
2021/09/03 02:07:00;;;;;;;20.23;9.83;;;13.50;99.10;;;;;;5039335;28;20416;-81
2021/09/03 02:09:26;;;;;;;24.30;10.73;;;13.50;99.10;;;;;;5040988;28;20280;-81
2021/09/03 02:11:52;;;;;;;25.53;11.37;;;13.50;99.10;;;;;;5040176;28;20174;-81
2021/09/03 02:14:18;;;;;;;19.93;9.57;;;13.40;99.10;;;;;;5041519;28;20189;-81
2021/09/03 02:16:43;;;;;;;21.63;11.30;;;13.40;99.10;;;;;;5042688;28;20549;-81
2021/09/03 02:19:09;;;;;;;21.97;10.30;;;13.40;99.10;;;;;;5042701;28;20449;-80
2021/09/03 02:21:37;;;;;;;24.00;10.43;;;13.40;99.10;;;;;;5041997;28;20177;-81
2021/09/03 02:24:04;;;;;;;26.20;11.50;;;13.40;99.10;;;;;;5042535;28;20447;-78
2021/09/03 02:26:30;;;;;;;25.17;9.75;;;13.40;99.00;;;;;;5041843;28;20173;-80
2021/09/03 02:28:56;;;;;;;20.13;9.90;;;13.30;99.10;;;;;;5041836;28;20201;-80
2021/09/03 02:31:22;;;;;;;19.17;10.47;;;13.30;99.10;;;;;;5041618;28;20438;-80
2021/09/03 02:33:48;;;;;;;21.27;10.00;;;13.30;99.10;;;;;;5040848;28;20799;-80
2021/09/03 02:36:13;;;;;;;20.30;10.00;;;13.30;99.10;;;;;;5040935;28;20483;-80
2021/09/03 02:38:39;;;;;;;19.60;9.73;;;13.30;99.10;;;;;;5040370;28;20669;-80
2021/09/03 02:41:05;;;;;;;22.90;10.80;;;13.30;99.10;;;;;;5039838;28;20173;-80
2021/09/03 02:43:31;;;;;;;20.77;10.60;;;13.20;99.10;;;;;;5039981;28;20256;-80
2021/09/03 02:45:57;;;;;;;22.00;10.02;;;13.20;99.10;;;;;;5039540;28;20262;-80
2021/09/03 02:48:23;;;;;;;24.23;10.83;;;13.20;99.10;;;;;;5039829;28;20204;-80
2021/09/03 02:50:48;;;;;;;23.30;10.67;;;13.20;99.10;;;;;;5040334;28;20538;-80
2021/09/03 02:53:14;;;;;;;20.10;10.07;;;13.20;99.10;;;;;;5040338;28;20415;-80
2021/09/03 02:55:40;;;;;;;23.67;11.10;;;13.20;99.10;;;;;;5058155;28;20514;-79
2021/09/03 02:58:06;;;;;;;22.20;10.70;;;13.20;99.10;;;;;;5040419;28;20177;-79
2021/09/03 03:00:33;;;;;;;20.07;10.00;;;13.20;99.10;;;;;;5039636;28;20185;-80
2021/09/03 03:02:59;;;;;;;21.10;9.45;;;13.10;99.10;;;;;;5040853;28;20419;-80
2021/09/03 03:05:26;;;;;;;23.93;11.10;;;13.10;99.10;;;;;;5039744;28;20665;-79
2021/09/03 03:07:51;;;;;;;26.98;11.25;;;13.00;99.10;;;;;;5040136;28;20408;-79
2021/09/03 03:10:18;;;;;;;24.43;12.30;;;13.00;99.10;;;;;;5040312;28;20196;-79
2021/09/03 03:12:44;;;;;;;22.25;11.48;;;13.00;99.10;;;;;;5039805;28;20407;-80
2021/09/03 03:15:10;;;;;;;26.15;11.45;;;13.00;99.10;;;;;;5039550;28;20260;-80
2021/09/03 03:17:36;;;;;;;31.67;11.98;;;12.90;99.10;;;;;;5039959;28;20256;-80
2021/09/03 03:20:03;;;;;;;21.73;11.13;;;12.90;99.10;;;;;;5038786;28;20212;-80
2021/09/03 03:22:28;;;;;;;25.13;11.13;;;12.90;99.10;;;;;;5038947;28;20172;-80
2021/09/03 03:24:54;;;;;;;25.07;11.03;;;12.90;99.10;;;;;;5039002;28;20255;-80
2021/09/03 03:27:20;;;;;;;21.83;10.87;;;12.90;99.10;;;;;;5039247;28;20464;-80
2021/09/03 03:29:46;;;;;;;23.20;12.23;;;12.90;99.10;;;;;;5039219;28;20485;-80
2021/09/03 03:32:12;;;;;;;24.83;11.33;;;12.90;99.10;;;;;;5057265;28;20590;-80
2021/09/03 03:34:37;;;;;;;23.23;10.67;;;12.90;99.10;;;;;;5039124;28;20267;-80
2021/09/03 03:37:04;;;;;;;24.40;10.80;;;12.80;99.10;;;;;;5038851;28;20761;-80
2021/09/03 03:39:30;;;;;;;22.55;9.85;;;12.80;99.10;;;;;;5039211;28;20423;-80
2021/09/03 03:41:56;;;;;;;26.13;12.17;;;12.80;99.10;;;;;;5039431;28;20177;-80
2021/09/03 03:44:21;;;;;;;25.67;11.03;;;12.80;99.10;;;;;;5039099;28;20791;-80
2021/09/03 03:46:47;;;;;;;26.60;11.23;;;12.80;99.10;;;;;;5039530;28;20176;-80
2021/09/03 03:49:13;;;;;;;29.35;12.32;;;12.70;99.10;;;;;;5039409;28;20201;-80
2021/09/03 03:51:39;;;;;;;21.60;10.37;;;12.70;99.10;;;;;;5039527;28;20173;-79
2021/09/03 03:54:05;;;;;;;27.80;11.90;;;12.70;99.10;;;;;;5039290;28;20796;-80
2021/09/03 03:56:31;;;;;;;27.83;12.07;;;12.70;99.10;;;;;;5039423;28;20399;-80
2021/09/03 03:58:57;;;;;;;27.30;12.53;;;12.70;99.10;;;;;;5039434;28;20236;-80
2021/09/03 04:01:22;;;;;;;20.90;9.88;;;12.70;99.10;;;;;;5039320;28;20411;-80
2021/09/03 04:03:48;;;;;;;24.20;11.27;;;12.70;99.10;;;;;;5038928;28;20200;-79
2021/09/03 04:06:14;;;;;;;28.43;11.60;;;12.60;99.10;;;;;;5038853;28;20169;-80
2021/09/03 04:08:40;;;;;;;23.90;12.40;;;12.60;99.10;;;;;;5038608;28;20468;-80
2021/09/03 04:11:06;;;;;;;28.10;11.27;;;12.60;99.10;;;;;;5039363;28;20408;-80
2021/09/03 04:13:32;;;;;;;26.10;12.10;;;12.60;99.10;;;;;;5038909;28;20411;-80
2021/09/03 04:15:58;;;;;;;28.87;11.17;;;12.50;99.10;;;;;;5038568;28;20272;-80
2021/09/03 04:18:24;;;;;;;21.88;11.50;;;12.50;99.10;;;;;;5039489;28;21094;-80
2021/09/03 04:20:49;;;;;;;46.85;12.98;;;12.50;99.10;;;;;;5039432;28;20169;-80
2021/09/03 04:23:15;;;;;;;32.53;10.10;;;12.40;99.10;;;;;;5039101;28;20183;-79
2021/09/03 04:25:41;;;;;;;26.20;11.27;;;12.40;99.10;;;;;;5038257;28;20432;-80
2021/09/03 04:28:07;;;;;;;24.17;10.20;;;12.40;99.10;;;;;;5038706;28;20412;-80
2021/09/03 04:30:33;;;;;;;26.77;11.63;;;12.40;99.10;;;;;;5038199;28;20704;-80
2021/09/03 04:32:59;;;;;;;26.90;11.77;;;12.30;99.10;;;;;;5037826;28;20440;-80
2021/09/03 04:35:25;;;;;;;25.73;10.00;;;12.40;99.10;;;;;;5038053;28;20431;-80
2021/09/03 04:37:52;;;;;;;26.08;11.40;;;12.30;99.10;;;;;;5038274;28;20412;-80
2021/09/03 04:40:19;;;;;;;30.20;12.68;;;12.30;99.10;;;;;;5038033;28;20176;-80
2021/09/03 04:42:45;;;;;;;33.70;10.70;;;12.30;99.10;;;;;;5037994;28;20179;-80
2021/09/03 04:45:12;;;;;;;21.02;11.63;;;12.30;99.10;;;;;;5038201;28;20201;-80
2021/09/03 04:47:38;;;;;;;23.02;11.20;;;12.30;99.10;;;;;;5039052;28;20260;-80
2021/09/03 04:50:07;;;;;;;24.13;10.48;;;12.30;99.10;;;;;;5037403;28;20231;-80
2021/09/03 04:52:33;;;;;;;22.52;11.00;;;12.30;99.10;;;;;;5037689;28;20570;-80
2021/09/03 04:54:59;;;;;;;21.47;10.77;;;12.30;99.10;;;;;;5037199;28;20189;-80
2021/09/03 04:57:24;;;;;;;22.03;9.30;;;12.30;99.10;;;;;;5037664;28;20495;-80
2021/09/03 04:59:50;;;;;;;21.73;10.70;;;12.20;99.10;;;;;;5037701;28;20173;-80
2021/09/03 05:02:17;;;;;;;23.83;9.60;;;12.20;99.10;;;;;;5038170;28;20638;-80
2021/09/03 05:04:43;;;;;;;20.77;10.50;;;12.20;99.10;;;;;;5037589;28;20436;-79
2021/09/03 05:07:10;;;;;;;19.17;9.07;;;12.20;99.10;;;;;;5037275;28;20247;-80
2021/09/03 05:09:35;;;;;;;24.13;10.80;;;12.20;99.10;;;;;;5037297;28;20613;-80
2021/09/03 05:12:01;;;;;;;22.10;10.27;;;12.20;99.10;;;;;;5037422;28;20173;-80
2021/09/03 05:14:27;;;;;;;24.80;10.13;;;12.20;99.10;;;;;;5037307;28;20489;-80
2021/09/03 05:16:53;;;;;;;20.07;10.17;;;12.20;99.10;;;;;;5037361;28;20415;-78
2021/09/03 05:19:19;;;;;;;22.70;11.00;;;12.20;99.10;;;;;;5038211;28;20843;-80
2021/09/03 05:21:45;;;;;;;16.90;9.07;;;12.30;99.10;;;;;;5038836;28;21094;-80
2021/09/03 05:24:10;;;;;;;22.43;11.20;;;12.30;99.10;;;;;;5038311;28;20547;-80
2021/09/03 05:26:36;;;;;;;26.50;10.80;;;12.30;99.10;;;;;;5038163;28;20491;-81
2021/09/03 05:29:02;;;;;;;18.37;9.80;;;12.30;99.10;;;;;;5037858;28;20193;-80
2021/09/03 05:31:28;;;;;;;18.80;9.02;;;12.20;99.10;;;;;;5038466;28;20533;-80
2021/09/03 05:33:54;;;;;;;22.63;10.07;;;12.30;99.10;;;;;;5055859;28;20185;-80
2021/09/03 05:36:22;;;;;;;24.17;10.00;;;12.30;99.10;;;;;;5038070;28;20169;-80
2021/09/03 05:38:48;;;;;;;21.02;10.48;;;12.30;99.10;;;;;;5038048;28;20920;-80
2021/09/03 05:41:14;;;;;;;30.75;11.40;;;12.30;99.10;;;;;;5038057;28;20170;-80
2021/09/03 05:43:40;;;;;;;30.97;10.57;;;12.30;99.10;;;;;;5042140;28;20184;-80
2021/09/03 05:46:06;;;;;;;16.53;10.37;;;12.40;99.10;;;;;;5059663;28;20431;-80
2021/09/03 05:48:31;;;;;;;23.20;10.47;;;12.50;99.10;;;;;;5041629;28;20197;-80
2021/09/03 05:50:57;;;;;;;22.00;10.73;;;12.50;99.10;;;;;;5042269;28;20173;-80
2021/09/03 05:53:23;;;;;;;24.83;10.80;;;12.50;99.10;;;;;;5042220;28;20188;-80
2021/09/03 05:55:49;;;;;;;25.13;10.00;;;12.60;99.10;;;;;;5041900;28;20431;-80
2021/09/03 05:58:14;;;;;;;23.43;11.87;;;12.70;99.10;;;;;;5042229;28;20173;-80
2021/09/03 06:00:40;;;;;;;24.30;10.70;;;12.70;99.10;;;;;;5041901;28;20649;-80
2021/09/03 06:03:07;;;;;;;25.53;11.70;;;12.70;99.10;;;;;;5041670;28;20197;-80
2021/09/03 06:05:33;;;;;;;27.55;11.88;;;12.80;99.10;;;;;;5041725;28;20465;-80
2021/09/03 06:07:58;;;;;;;30.17;11.40;;;12.90;99.10;;;;;;5041596;28;20650;-80
2021/09/03 06:10:24;;;;;;;30.20;12.13;;;12.90;99.10;;;;;;5041491;28;20169;-80
2021/09/03 06:12:50;;;;;;;28.07;11.93;;;13.00;99.10;;;;;;5042032;28;20492;-80
2021/09/03 06:15:16;;;;;;;28.87;12.10;;;13.00;99.10;;;;;;5041875;28;20231;-80
2021/09/03 06:17:42;;;;;;;29.50;13.90;;;13.10;99.10;;;;;;5041083;28;20435;-79
2021/09/03 06:20:10;;;;;;;30.43;12.83;;;13.20;99.10;;;;;;5041347;28;20803;-80
2021/09/03 06:22:35;;;;;;;34.10;14.55;;;13.20;99.10;;;;;;5041394;28;20977;-80
2021/09/03 06:25:02;;;;;;;32.60;13.20;;;13.30;99.10;;;;;;5041535;28;20193;-80
2021/09/03 06:27:28;;;;;;;38.63;15.80;;;13.30;99.10;;;;;;5041344;28;20413;-80
2021/09/03 06:29:54;;;;;;;40.37;15.73;;;13.40;99.10;;;;;;5041625;28;20197;-80
2021/09/03 06:32:21;;;;;;;31.40;13.60;;;13.50;99.10;;;;;;5041365;28;20169;-80
2021/09/03 06:34:50;;;;;;;30.65;12.88;;;13.50;99.10;;;;;;5041024;28;20261;-79
2021/09/03 06:37:16;;;;;;;23.48;11.85;;;13.60;99.10;;;;;;5040664;28;20173;-78
2021/09/03 06:39:43;;;;;;;21.45;11.15;;;13.70;99.10;;;;;;5040529;28;20173;-78
2021/09/03 06:42:09;;;;;;;31.30;12.88;;;13.70;99.10;;;;;;5040170;28;20177;-79
2021/09/03 06:44:36;;;;;;;29.48;10.18;;;13.70;99.10;;;;;;5040264;28;20204;-79
2021/09/03 06:47:03;;;;;;;29.40;10.65;;;13.80;99.10;;;;;;5040401;28;20177;-78
2021/09/03 06:49:29;;;;;;;31.35;12.52;;;13.90;99.10;;;;;;5039360;28;20197;-78
2021/09/03 06:51:55;;;;;;;24.77;12.40;;;14.00;99.10;;;;;;5039337;28;20169;-78
2021/09/03 06:54:22;;;;;;;28.67;13.65;;;14.10;99.10;;;;;;5040180;28;20201;-78
2021/09/03 06:56:47;;;;;;;28.80;12.80;;;14.20;99.10;;;;;;5040637;28;20173;-78
2021/09/03 06:59:13;;;;;;;24.20;11.63;;;14.30;99.10;;;;;;5040040;28;20233;-78
2021/09/03 07:01:39;;;;;;;32.77;14.00;;;14.30;99.10;;;;;;5039863;28;20174;-78
2021/09/03 07:04:05;;;;;;;32.17;13.43;;;14.40;99.10;;;;;;5039893;28;20432;-77
2021/09/03 07:06:31;;;;;;;27.00;13.65;;;14.50;99.10;;;;;;5038686;28;20427;-78
2021/09/03 07:08:57;;;;;;;29.57;12.17;;;14.60;99.10;;;;;;5038480;28;20429;-78
2021/09/03 07:11:23;;;;;;;27.67;12.40;;;14.70;99.10;;;;;;5038235;28;20407;-78
2021/09/03 07:13:49;;;;;;;26.10;12.07;;;;;;;;;;5038217;28;20533;-78
2021/09/03 07:16:16;;;;;;;23.30;10.38;;;;;;;;;;5038132;28;20724;-78
2021/09/03 07:18:41;;;;;;;23.98;10.27;;;15.20;98.30;;;;;;5038568;28;20178;-78
2021/09/03 07:21:08;;;;;;;22.93;10.90;;;15.30;97.60;;;;;;5038529;28;20173;-78
2021/09/03 07:23:34;;;;;;;20.42;9.63;;;15.40;97.00;;;;;;5038384;28;20183;-78
2021/09/03 07:26:03;;;;;;;16.60;8.73;;;15.40;96.50;;;;;;5038761;28;20279;-78
2021/09/03 07:28:29;;;;;;;21.33;10.10;;;15.60;96.10;;;;;;5038798;28;20462;-78
2021/09/03 07:30:55;;;;;;;20.10;10.20;;;15.70;95.50;;;;;;5038095;28;20165;-78
2021/09/03 07:33:21;;;;;;;17.67;8.32;;;15.80;95.20;;;;;;5038420;28;20215;-78
2021/09/03 07:35:46;;;;;;;25.70;10.10;;;15.90;95.00;;;;;;5038257;28;20280;-77
2021/09/03 07:38:12;;;;;;;21.47;10.23;;;16.00;94.40;;;;;;5037775;28;20220;-78
2021/09/03 07:40:39;;;;;;;19.27;9.85;;;16.10;95.00;;;;;;5038319;28;20787;-78
2021/09/03 07:43:06;;;;;;;21.65;9.35;;;16.20;94.20;;;;;;5038035;28;20203;-78
2021/09/03 07:45:38;;;;;;;24.75;8.75;;;16.40;93.00;;;;;;5038252;28;20243;-78
2021/09/03 07:48:05;;;;;;;18.33;8.52;;;16.50;93.30;;;;;;5038418;28;20620;-78
2021/09/03 07:50:34;;;;;;;22.15;9.73;;;16.60;92.60;;;;;;5038802;28;20233;-79
2021/09/03 07:53:04;;;;;;;19.13;8.95;;;16.70;92.50;;;;;;5039205;28;20263;-79
2021/09/03 07:55:31;;;;;;;18.95;9.27;;;16.80;90.90;;;;;;5038049;28;20205;-79
2021/09/03 07:57:56;;;;;;;18.25;8.48;;;16.90;91.80;;;;;;5038555;28;20177;-79
2021/09/03 08:00:22;;;;;;;17.23;8.82;;;16.90;90.10;;;;;;5038741;28;20219;-79
2021/09/03 08:02:48;;;;;;;17.07;9.13;;;16.90;90.10;;;;;;5038536;28;20169;-79
2021/09/03 08:05:14;;;;;;;18.50;8.90;;;17.00;90.10;;;;;;5037638;28;20444;-79
2021/09/03 08:07:42;;;;;;;16.90;9.33;;;17.10;90.20;;;;;;5038661;28;20177;-79
2021/09/03 08:10:13;;;;;;;16.80;9.32;;;17.30;89.40;;;;;;5038454;28;20462;-80
2021/09/03 08:12:40;;;;;;;16.15;8.35;;;17.40;89.40;;;;;;5039533;28;20176;-79
2021/09/03 08:15:07;;;;;;;21.35;9.75;;;17.50;88.80;;;;;;5039224;28;20193;-79
2021/09/03 08:17:34;;;;;;;27.95;9.70;;;17.60;87.10;;;;;;5039373;28;20180;-79
2021/09/03 08:20:00;;;;;;;20.75;9.10;;;17.70;87.00;;;;;;5038612;28;20208;-79
2021/09/03 08:22:26;;;;;;;14.20;8.63;;;17.80;87.30;;;;;;5037510;28;20169;-80
2021/09/03 08:24:53;;;;;;;19.33;7.68;;;17.90;85.90;;;;;;5038064;28;20615;-79
2021/09/03 08:27:19;;;;;;;18.33;8.95;;;18.00;85.80;;;;;;5038917;28;20183;-79
2021/09/03 08:29:46;;;;;;;25.40;8.20;;;18.10;84.80;;;;;;5038073;28;20223;-79
2021/09/03 08:32:15;;;;;;;16.27;7.43;;;18.20;84.40;;;;;;5038816;28;20181;-79
2021/09/03 08:34:42;;;;;;;17.52;8.15;;;18.40;84.60;;;;;;5039202;28;20621;-79
2021/09/03 08:37:09;;;;;;;19.27;8.80;;;18.50;83.40;;;;;;5038344;28;20625;-79
2021/09/03 08:39:35;;;;;;;16.95;8.30;;;18.60;83.40;;;;;;5038672;28;20235;-79
2021/09/03 08:42:02;;;;;;;14.27;6.68;;;18.70;82.60;;;;;;5038492;28;20172;-79
2021/09/03 08:44:32;;;;;;;15.75;6.93;;;18.80;82.30;;;;;;5038398;28;20208;-79
2021/09/03 08:46:58;;;;;;;16.67;8.35;;;18.90;81.30;;;;;;5038136;28;20178;-79
2021/09/03 08:49:24;;;;;;;13.93;7.63;;;19.00;80.90;;;;;;5038130;28;20264;-79
2021/09/03 08:51:50;;;;;;;13.30;6.90;;;19.10;79.40;;;;;;5037989;28;21046;-79
2021/09/03 08:54:18;;;;;;;14.17;7.27;;;19.20;79.90;;;;;;5037687;28;20271;-79
2021/09/03 08:56:43;;;;;;;14.10;7.63;;;19.40;80.60;;;;;;5037521;28;20414;-79
2021/09/03 08:59:09;;;;;;;17.47;8.07;;;19.50;80.20;;;;;;5038580;28;20177;-79
2021/09/03 09:01:35;;;;;;;15.43;8.37;;;19.60;78.40;;;;;;5038092;28;20180;-79
2021/09/03 09:04:13;;;;;;;14.33;7.20;;;19.70;78.50;;;;;;5055847;28;20173;-79
2021/09/03 09:06:42;;;;;;;20.90;8.43;;;19.90;78.80;;;;;;5037630;28;20173;-80
2021/09/03 09:09:07;;;;;;;15.55;8.02;;;20.00;79.20;;;;;;5038018;28;20232;-79
2021/09/03 09:11:36;;;;;;;14.97;8.00;;;20.10;77.70;;;;;;5037615;28;20684;-80
2021/09/03 09:14:05;;;;;;;19.65;9.85;;;20.20;76.30;;;;;;5037860;28;20169;-81
2021/09/03 09:16:32;;;;;;;14.07;7.57;;;20.40;76.60;;;;;;5037118;28;20196;-81
2021/09/03 09:19:03;;;;;;;13.30;7.97;;;20.40;76.90;;;;;;5038698;28;20629;-81
2021/09/03 09:21:38;;;;;;;15.73;7.68;;;20.50;76.60;;;;;;5037972;28;20207;-81
2021/09/03 09:24:15;;;;;;;16.17;8.05;;;20.70;76.90;;;;;;5038239;28;20710;-81
2021/09/03 09:26:43;;;;;;;13.27;7.97;;;20.80;75.50;;;;;;5055149;28;20201;-81
2021/09/03 09:29:25;;;;;;;12.13;6.50;;;20.90;78.00;;;;;;5039451;28;20232;-81
2021/09/03 09:31:53;;;;;;;17.88;7.00;;;21.10;75.20;;;;;;5038005;28;20536;-80
2021/09/03 09:34:21;;;;;;;13.38;7.80;;;21.10;75.30;;;;;;5037980;28;20201;-79
2021/09/03 09:36:50;;;;;;;12.13;6.82;;;21.20;75.50;;;;;;5056511;28;20165;-79
2021/09/03 09:39:18;;;;;;;14.02;7.45;;;21.40;74.20;;;;;;5038309;28;20265;-81
2021/09/03 09:41:45;;;;;;;13.88;7.38;;;21.60;73.50;;;;;;5038103;28;20173;-80
2021/09/03 09:44:11;;;;;;;12.20;6.80;;;21.80;74.20;;;;;;5038406;28;20219;-80
2021/09/03 09:46:37;;;;;;;15.65;7.20;;;21.90;71.60;;;;;;5037817;28;20264;-79
2021/09/03 09:49:10;;;;;;;14.50;6.82;;;22.20;72.30;;;;;;5038317;28;20216;-81
2021/09/03 09:51:44;;;;;;;14.65;8.60;;;22.40;72.00;;;;;;5037804;28;20188;-81
2021/09/03 09:54:22;;;;;;;13.07;7.35;;;22.50;72.10;;;;;;5037349;28;20184;-81
2021/09/03 09:56:51;;;;;;;15.40;6.10;;;22.70;70.20;;;;;;5037995;28;20168;-81
2021/09/03 09:59:18;;;;;;;11.52;6.25;;;22.80;70.80;;;;;;5037373;28;20648;-81
2021/09/03 10:01:47;;;;;;;17.88;6.47;;;22.90;69.50;;;;;;5037162;28;20566;-81
2021/09/03 10:04:18;;;;;;;11.95;7.45;;;23.10;69.80;;;;;;5037813;28;20664;-81
2021/09/03 10:06:45;;;;;;;15.50;7.65;;;23.30;68.90;;;;;;5037906;28;20493;-81
2021/09/03 10:09:20;;;;;;;15.43;6.25;;;23.50;68.50;;;;;;5038542;28;20251;-81
2021/09/03 10:11:49;;;;;;;11.88;6.22;;;23.70;68.10;;;;;;5039087;28;20169;-81
2021/09/03 10:14:18;;;;;;;18.65;7.88;;;23.90;68.50;;;;;;5037992;28;20193;-81
2021/09/03 10:16:46;;;;;;;10.20;6.60;;;24.20;65.60;;;;;;5038127;28;20622;-81
2021/09/03 10:19:14;;;;;;;10.50;5.95;;;24.40;67.70;;;;;;5038230;28;20177;-81
2021/09/03 10:21:40;;;;;;;17.55;7.20;;;24.60;64.20;;;;;;5038298;28;20673;-81
2021/09/03 10:24:18;;;;;;;19.00;7.72;;;24.70;64.40;;;;;;5038269;28;20196;-81
2021/09/03 10:26:46;;;;;;;11.93;7.00;;;24.80;62.40;;;;;;5037931;28;20173;-81
2021/09/03 10:29:23;;;;;;;12.60;7.00;;;24.90;63.30;;;;;;5040162;28;20695;-81
2021/09/03 10:32:04;;;;;;;11.13;6.13;;;25.00;63.50;;;;;;5041702;28;20165;-80
2021/09/03 10:34:50;;;;;;;11.55;6.32;;;25.10;64.20;;;;;;5041104;28;20204;-80
2021/09/03 10:37:15;;;;;;;15.65;6.28;;;25.30;63.40;;;;;;5041326;28;20171;-82
2021/09/03 10:39:45;;;;;;;12.27;7.07;;;25.50;64.20;;;;;;5041040;28;20174;-82
2021/09/03 10:42:31;;;;;;;17.23;7.90;;;25.80;61.60;;;;;;5042088;28;20481;-82
2021/09/03 10:45:04;;;;;;;14.27;7.47;;;25.60;60.50;;;;;;5057352;28;20189;-81
2021/09/03 10:47:50;;;;;;;12.95;6.65;;;25.70;61.40;;;;;;5041723;28;20649;-82
2021/09/03 10:50:25;;;;;;;10.27;7.18;;;25.90;59.70;;;;;;5042050;28;20225;-82
2021/09/03 10:53:03;;;;;;;17.17;7.88;;;25.90;62.40;;;;;;5042419;28;20192;-81
2021/09/03 10:56:03;;;;;;;12.90;6.85;;;26.00;60.20;;;;;;5043339;28;20203;-82
2021/09/03 10:58:49;;;;;;;14.55;6.40;;;26.00;59.70;;;;;;5041753;28;20180;-82
2021/09/03 11:01:18;;;;;;;15.10;7.40;;;26.00;59.70;;;;;;5043486;28;20508;-82
2021/09/03 11:03:52;;;;;;;14.88;8.25;;;26.10;59.30;;;;;;5042058;28;20653;-81
2021/09/03 11:06:32;;;;;;;11.38;6.72;;;26.20;58.80;;;;;;5041173;28;20170;-81
2021/09/03 11:09:03;;;;;;;18.25;7.10;;;26.40;59.30;;;;;;5041713;28;20193;-81
2021/09/03 11:11:39;;;;;;;17.13;6.60;;;26.60;59.20;;;;;;5058472;28;20173;-81
2021/09/03 11:14:06;;;;;;;9.68;5.90;;;26.70;59.20;;;;;;5041575;28;20195;-81
2021/09/03 11:16:45;;;;;;;11.07;6.70;;;26.80;59.30;;;;;;5040852;28;20169;-81
2021/09/03 11:19:16;;;;;;;13.52;6.07;;;26.80;59.80;;;;;;5041068;28;20644;-81
2021/09/03 11:21:49;;;;;;;12.07;6.45;;;27.00;56.80;;;;;;5057163;28;20223;-81
2021/09/03 11:24:21;;;;;;;8.85;5.60;;;27.10;57.60;;;;;;5040621;28;20193;-81
2021/09/03 11:26:48;;;;;;;11.23;6.20;;;27.10;55.30;;;;;;5041111;28;20203;-81
2021/09/03 11:29:28;;;;;;;9.15;5.95;;;27.10;55.40;;;;;;5041050;28;20197;-81
2021/09/03 11:32:00;;;;;;;10.48;6.32;;;27.20;54.90;;;;;;5040516;28;20169;-81
2021/09/03 11:34:43;;;;;;;11.63;6.70;;;27.30;53.90;;;;;;5040642;28;20300;-81
2021/09/03 11:37:15;;;;;;;8.35;5.60;;;27.40;57.90;;;;;;5040572;28;20549;-81
2021/09/03 11:39:41;;;;;;;12.30;6.57;;;27.50;54.30;;;;;;5056481;28;20169;-81
2021/09/03 11:42:16;;;;;;;11.83;5.77;;;27.40;54.50;;;;;;5041324;28;20173;-81
2021/09/03 11:44:53;;;;;;;10.75;5.50;;;27.40;56.30;;;;;;5058312;28;20208;-82
2021/09/03 11:47:35;;;;;;;8.43;5.22;;;27.60;56.60;;;;;;5058714;28;20173;-82
2021/09/03 11:50:08;;;;;;;12.07;5.70;;;27.70;54.10;;;;;;5041578;28;20200;-82
2021/09/03 11:52:34;;;;;;;9.55;6.18;;;27.70;54.10;;;;;;5059133;28;20157;-82
2021/09/03 11:55:00;;;;;;;11.38;5.88;;;27.90;53.80;;;;;;5040440;28;20196;-82
2021/09/03 11:57:27;;;;;;;8.40;5.10;;;28.00;53.30;;;;;;5040893;28;20236;-82
2021/09/03 11:59:58;;;;;;;13.95;5.20;;;28.20;54.10;;;;;;5041365;28;20180;-82
2021/09/03 12:02:28;;;;;;;13.38;6.20;;;28.30;52.50;;;;;;5057555;28;20165;-82
2021/09/03 12:04:56;;;;;;;10.35;5.80;;;28.40;53.40;;;;;;5041090;28;20197;-82
2021/09/03 12:07:24;;;;;;;8.07;5.70;;;28.50;50.80;;;;;;5041659;28;20201;-82
2021/09/03 12:09:54;;;;;;;9.52;6.00;;;28.60;52.00;;;;;;5042220;28;20204;-82
2021/09/03 12:12:25;;;;;;;7.45;5.25;;;28.60;49.90;;;;;;5058474;28;20165;-82
2021/09/03 12:15:02;;;;;;;9.82;5.63;;;28.70;50.30;;;;;;5041057;28;20354;-82
2021/09/03 12:17:42;;;;;;;10.13;5.95;;;28.60;53.20;;;;;;5058182;28;20644;-82
2021/09/03 12:20:14;;;;;;;10.20;5.90;;;28.60;49.90;;;;;;5058479;28;20180;-82
2021/09/03 12:22:54;;;;;;;9.43;5.45;;;28.60;50.50;;;;;;5041686;28;20191;-82
2021/09/03 12:25:33;;;;;;;9.10;5.32;;;28.80;51.90;;;;;;5041366;28;20242;-83
2021/09/03 12:28:12;;;;;;;7.63;4.93;;;29.00;50.10;;;;;;5040698;28;20176;-82
2021/09/03 12:30:39;;;;;;;9.30;5.50;;;29.10;50.00;;;;;;5041386;28;20176;-82
2021/09/03 12:33:21;;;;;;;10.95;6.10;;;29.10;49.40;;;;;;5040652;28;20185;-82
2021/09/03 12:35:49;;;;;;;7.53;5.20;;;29.20;51.20;;;;;;5043469;28;20197;-84